sensor_id;sensor_type;location;lat;lon;timestamp;pressure;altitude;pressure_sealevel;temperature;humidity
32131;BME280;18639;50.716;7.086;2023-12-04T00:00:36;100342.53;;;1.16;100.00
32131;BME280;18639;50.716;7.086;2023-12-04T00:03:01;100319.31;;;0.96;100.00
32131;BME280;18639;50.716;7.086;2023-12-04T00:05:27;100342.88;;;1.02;100.00
32131;BME280;18639;50.716;7.086;2023-12-04T00:07:52;100311.03;;;0.88;100.00
32131;BME280;18639;50.716;7.086;2023-12-04T00:10:17;100350.19;;;1.14;100.00
32131;BME280;18639;50.716;7.086;2023-12-04T00:12:43;100344.41;;;1.08;100.00
32131;BME280;18639;50.716;7.086;2023-12-04T00:15:08;100325.78;;;1.07;100.00
32131;BME280;18639;50.716;7.086;2023-12-04T00:17:34;100321.63;;;1.05;100.00
32131;BME280;18639;50.716;7.086;2023-12-04T00:19:59;100295.75;;;0.89;100.00
32131;BME280;18639;50.716;7.086;2023-12-04T00:22:25;100319.97;;;1.02;100.00
32131;BME280;18639;50.716;7.086;2023-12-04T00:24:50;100321.59;;;1.06;100.00
32131;BME280;18639;50.716;7.086;2023-12-04T00:27:15;100319.91;;;1.05;100.00
32131;BME280;18639;50.716;7.086;2023-12-04T00:29:41;100318.13;;;1.07;100.00
32131;BME280;18639;50.716;7.086;2023-12-04T00:32:06;100311.59;;;0.99;100.00
32131;BME280;18639;50.716;7.086;2023-12-04T00:34:31;100309.06;;;0.99;100.00
32131;BME280;18639;50.716;7.086;2023-12-04T00:36:57;100284.84;;;0.84;100.00
32131;BME280;18639;50.716;7.086;2023-12-04T00:39:22;100292.94;;;0.98;100.00
32131;BME280;18639;50.716;7.086;2023-12-04T00:41:47;100293.78;;;0.99;100.00
32131;BME280;18639;50.716;7.086;2023-12-04T00:44:13;100257.09;;;0.75;100.00
32131;BME280;18639;50.716;7.086;2023-12-04T00:46:38;100279.78;;;0.84;100.00
32131;BME280;18639;50.716;7.086;2023-12-04T00:49:03;100292.25;;;0.93;100.00
32131;BME280;18639;50.716;7.086;2023-12-04T00:51:28;100279.69;;;0.87;100.00
32131;BME280;18639;50.716;7.086;2023-12-04T00:53:54;100293.69;;;1.02;100.00
32131;BME280;18639;50.716;7.086;2023-12-04T00:56:19;100240.31;;;0.69;100.00
32131;BME280;18639;50.716;7.086;2023-12-04T00:58:45;100291.25;;;0.99;100.00
32131;BME280;18639;50.716;7.086;2023-12-04T01:01:11;100269.50;;;0.87;100.00
32131;BME280;18639;50.716;7.086;2023-12-04T01:03:37;100235.97;;;0.73;100.00
32131;BME280;18639;50.716;7.086;2023-12-04T01:06:03;100281.06;;;0.99;100.00
32131;BME280;18639;50.716;7.086;2023-12-04T01:08:28;100264.34;;;0.90;100.00
32131;BME280;18639;50.716;7.086;2023-12-04T01:10:54;100230.22;;;0.66;100.00
32131;BME280;18639;50.716;7.086;2023-12-04T01:13:19;100272.69;;;0.95;100.00
32131;BME280;18639;50.716;7.086;2023-12-04T01:15:44;100280.25;;;0.97;100.00
32131;BME280;18639;50.716;7.086;2023-12-04T01:18:11;100276.91;;;0.96;100.00
32131;BME280;18639;50.716;7.086;2023-12-04T01:20:37;100259.28;;;0.90;100.00
32131;BME280;18639;50.716;7.086;2023-12-04T01:23:02;100246.78;;;0.81;100.00
32131;BME280;18639;50.716;7.086;2023-12-04T01:25:27;100236.72;;;0.76;100.00
32131;BME280;18639;50.716;7.086;2023-12-04T01:27:53;100264.25;;;0.93;100.00
32131;BME280;18639;50.716;7.086;2023-12-04T01:30:18;100214.25;;;0.61;100.00
32131;BME280;18639;50.716;7.086;2023-12-04T01:32:43;100253.09;;;0.99;100.00
32131;BME280;18639;50.716;7.086;2023-12-04T01:35:09;100252.34;;;0.95;100.00
32131;BME280;18639;50.716;7.086;2023-12-04T01:37:34;100227.84;;;0.91;100.00
32131;BME280;18639;50.716;7.086;2023-12-04T01:39:59;100222.75;;;0.91;100.00
32131;BME280;18639;50.716;7.086;2023-12-04T01:42:25;100242.72;;;1.06;100.00
32131;BME280;18639;50.716;7.086;2023-12-04T01:44:50;100220.31;;;0.88;100.00
32131;BME280;18639;50.716;7.086;2023-12-04T01:47:16;100216.03;;;0.90;100.00
32131;BME280;18639;50.716;7.086;2023-12-04T01:49:42;100221.88;;;0.92;100.00
32131;BME280;18639;50.716;7.086;2023-12-04T01:52:08;100222.88;;;0.87;100.00
32131;BME280;18639;50.716;7.086;2023-12-04T01:54:34;100226.03;;;0.96;100.00
32131;BME280;18639;50.716;7.086;2023-12-04T01:56:59;100227.63;;;1.00;100.00
32131;BME280;18639;50.716;7.086;2023-12-04T01:59:25;100215.81;;;0.98;100.00
32131;BME280;18639;50.716;7.086;2023-12-04T02:01:52;100219.19;;;0.98;100.00
32131;BME280;18639;50.716;7.086;2023-12-04T02:04:18;100217.50;;;0.97;100.00
32131;BME280;18639;50.716;7.086;2023-12-04T02:06:43;100223.41;;;0.99;100.00
32131;BME280;18639;50.716;7.086;2023-12-04T02:09:09;100204.22;;;0.88;100.00
32131;BME280;18639;50.716;7.086;2023-12-04T02:11:38;100176.81;;;0.68;100.00
32131;BME280;18639;50.716;7.086;2023-12-04T02:14:04;100217.81;;;0.87;100.00
32131;BME280;18639;50.716;7.086;2023-12-04T02:16:31;100188.44;;;0.75;100.00
32131;BME280;18639;50.716;7.086;2023-12-04T02:18:58;100156.09;;;0.49;100.00
32131;BME280;18639;50.716;7.086;2023-12-04T02:21:23;100227.25;;;0.83;100.00
32131;BME280;18639;50.716;7.086;2023-12-04T02:23:50;100162.69;;;0.56;100.00
32131;BME280;18639;50.716;7.086;2023-12-04T02:26:16;100188.66;;;0.69;100.00
32131;BME280;18639;50.716;7.086;2023-12-04T02:28:46;100161.00;;;0.57;100.00
32131;BME280;18639;50.716;7.086;2023-12-04T02:31:15;100160.88;;;0.61;100.00
32131;BME280;18639;50.716;7.086;2023-12-04T02:33:42;100154.88;;;0.64;100.00
32131;BME280;18639;50.716;7.086;2023-12-04T02:36:10;100168.47;;;0.63;100.00
32131;BME280;18639;50.716;7.086;2023-12-04T02:38:35;100162.31;;;0.70;100.00
32131;BME280;18639;50.716;7.086;2023-12-04T02:41:01;100166.53;;;0.71;100.00
32131;BME280;18639;50.716;7.086;2023-12-04T02:43:26;100143.63;;;0.72;100.00
32131;BME280;18639;50.716;7.086;2023-12-04T02:45:51;100178.88;;;0.84;100.00
32131;BME280;18639;50.716;7.086;2023-12-04T02:48:16;100144.94;;;0.55;100.00
32131;BME280;18639;50.716;7.086;2023-12-04T02:50:42;100185.91;;;0.75;100.00
32131;BME280;18639;50.716;7.086;2023-12-04T02:53:07;100185.19;;;0.70;100.00
32131;BME280;18639;50.716;7.086;2023-12-04T02:55:32;100175.66;;;0.78;100.00
32131;BME280;18639;50.716;7.086;2023-12-04T02:57:58;100143.03;;;0.63;100.00
32131;BME280;18639;50.716;7.086;2023-12-04T03:00:23;100135.13;;;0.43;100.00
32131;BME280;18639;50.716;7.086;2023-12-04T03:02:48;100128.13;;;0.51;100.00
32131;BME280;18639;50.716;7.086;2023-12-04T03:05:13;100127.53;;;0.41;100.00
32131;BME280;18639;50.716;7.086;2023-12-04T03:07:39;100164.09;;;0.68;100.00
32131;BME280;18639;50.716;7.086;2023-12-04T03:10:04;100142.94;;;0.66;100.00
32131;BME280;18639;50.716;7.086;2023-12-04T03:12:30;100161.28;;;0.77;100.00
32131;BME280;18639;50.716;7.086;2023-12-04T03:14:55;100116.41;;;0.45;100.00
32131;BME280;18639;50.716;7.086;2023-12-04T03:17:21;100141.38;;;0.62;100.00
32131;BME280;18639;50.716;7.086;2023-12-04T03:19:46;100126.94;;;0.62;100.00
32131;BME280;18639;50.716;7.086;2023-12-04T03:22:12;100143.31;;;0.83;100.00
32131;BME280;18639;50.716;7.086;2023-12-04T03:24:38;100132.00;;;0.64;100.00
32131;BME280;18639;50.716;7.086;2023-12-04T03:27:03;100146.13;;;0.74;100.00
32131;BME280;18639;50.716;7.086;2023-12-04T03:29:28;100144.44;;;0.73;100.00
32131;BME280;18639;50.716;7.086;2023-12-04T03:31:54;100146.03;;;0.77;100.00
32131;BME280;18639;50.716;7.086;2023-12-04T03:34:19;100119.28;;;0.64;100.00
32131;BME280;18639;50.716;7.086;2023-12-04T03:36:44;100128.31;;;0.74;100.00
32131;BME280;18639;50.716;7.086;2023-12-04T03:39:09;100115.91;;;0.63;100.00
32131;BME280;18639;50.716;7.086;2023-12-04T03:41:35;100125.16;;;0.66;100.00
32131;BME280;18639;50.716;7.086;2023-12-04T03:44:00;100087.84;;;0.37;100.00
32131;BME280;18639;50.716;7.086;2023-12-04T03:46:25;100117.84;;;0.54;100.00
32131;BME280;18639;50.716;7.086;2023-12-04T03:48:51;100100.00;;;0.57;100.00
32131;BME280;18639;50.716;7.086;2023-12-04T03:51:16;100120.09;;;0.64;100.00
32131;BME280;18639;50.716;7.086;2023-12-04T03:53:41;100107.50;;;0.61;100.00
32131;BME280;18639;50.716;7.086;2023-12-04T03:56:07;100091.56;;;0.55;100.00
32131;BME280;18639;50.716;7.086;2023-12-04T03:58:32;100102.53;;;0.57;100.00
32131;BME280;18639;50.716;7.086;2023-12-04T04:00:58;100127.63;;;0.69;100.00
32131;BME280;18639;50.716;7.086;2023-12-04T04:03:23;100116.13;;;0.56;100.00
32131;BME280;18639;50.716;7.086;2023-12-04T04:05:48;100115.94;;;0.62;100.00
32131;BME280;18639;50.716;7.086;2023-12-04T04:08:13;100112.69;;;0.57;100.00
32131;BME280;18639;50.716;7.086;2023-12-04T04:10:39;100110.97;;;0.59;100.00
32131;BME280;18639;50.716;7.086;2023-12-04T04:13:04;100109.19;;;0.61;100.00
32131;BME280;18639;50.716;7.086;2023-12-04T04:15:29;100110.00;;;0.63;100.00
32131;BME280;18639;50.716;7.086;2023-12-04T04:17:55;100113.31;;;0.65;100.00
32131;BME280;18639;50.716;7.086;2023-12-04T04:20:20;100114.38;;;0.58;100.00
32131;BME280;18639;50.716;7.086;2023-12-04T04:22:48;100109.34;;;0.55;100.00
32131;BME280;18639;50.716;7.086;2023-12-04T04:25:14;100073.59;;;0.31;100.00
32131;BME280;18639;50.716;7.086;2023-12-04T04:27:39;100086.75;;;0.46;100.00
32131;BME280;18639;50.716;7.086;2023-12-04T04:30:06;100086.47;;;0.55;100.00
32131;BME280;18639;50.716;7.086;2023-12-04T04:32:31;100073.94;;;0.49;100.00
32131;BME280;18639;50.716;7.086;2023-12-04T04:34:57;100078.03;;;0.54;100.00
32131;BME280;18639;50.716;7.086;2023-12-04T04:37:22;100079.72;;;0.54;100.00
32131;BME280;18639;50.716;7.086;2023-12-04T04:39:47;100070.06;;;0.37;100.00
32131;BME280;18639;50.716;7.086;2023-12-04T04:42:13;100062.31;;;0.41;100.00
32131;BME280;18639;50.716;7.086;2023-12-04T04:44:39;100069.22;;;0.36;100.00
32131;BME280;18639;50.716;7.086;2023-12-04T04:47:04;100063.19;;;0.40;100.00
32131;BME280;18639;50.716;7.086;2023-12-04T04:49:29;100067.22;;;0.48;100.00
32131;BME280;18639;50.716;7.086;2023-12-04T04:51:54;100058.16;;;0.37;100.00
32131;BME280;18639;50.716;7.086;2023-12-04T04:54:20;100073.59;;;0.61;100.00
32131;BME280;18639;50.716;7.086;2023-12-04T04:56:45;100047.94;;;0.40;100.00
32131;BME280;18639;50.716;7.086;2023-12-04T04:59:10;100062.03;;;0.51;100.00
32131;BME280;18639;50.716;7.086;2023-12-04T05:01:35;100068.63;;;0.58;100.00
32131;BME280;18639;50.716;7.086;2023-12-04T05:04:01;100056.75;;;0.58;100.00
32131;BME280;18639;50.716;7.086;2023-12-04T05:06:27;100052.59;;;0.54;100.00
32131;BME280;18639;50.716;7.086;2023-12-04T05:08:55;100062.31;;;0.41;100.00
32131;BME280;18639;50.716;7.086;2023-12-04T05:11:21;100070.78;;;0.40;100.00
32131;BME280;18639;50.716;7.086;2023-12-04T05:13:46;100068.06;;;0.48;100.00
32131;BME280;18639;50.716;7.086;2023-12-04T05:16:11;100069.09;;;0.41;100.00
32131;BME280;18639;50.716;7.086;2023-12-04T05:18:38;100050.47;;;0.40;100.00
32131;BME280;18639;50.716;7.086;2023-12-04T05:21:08;100058.59;;;0.53;100.00
32131;BME280;18639;50.716;7.086;2023-12-04T05:23:33;100059.66;;;0.45;100.00
32131;BME280;18639;50.716;7.086;2023-12-04T05:25:59;100061.91;;;0.55;100.00
32131;BME280;18639;50.716;7.086;2023-12-04T05:28:24;100073.78;;;0.55;100.00
32131;BME280;18639;50.716;7.086;2023-12-04T05:30:49;100061.34;;;0.46;100.00
32131;BME280;18639;50.716;7.086;2023-12-04T05:33:15;100042.56;;;0.50;100.00
32131;BME280;18639;50.716;7.086;2023-12-04T05:35:40;100049.16;;;0.57;100.00
32131;BME280;18639;50.716;7.086;2023-12-04T05:38:05;100048.59;;;0.47;100.00
32131;BME280;18639;50.716;7.086;2023-12-04T05:40:32;100046.22;;;0.41;100.00
32131;BME280;18639;50.716;7.086;2023-12-04T05:42:58;100008.56;;;0.24;100.00
32131;BME280;18639;50.716;7.086;2023-12-04T05:45:23;100036.63;;;0.51;100.00
32131;BME280;18639;50.716;7.086;2023-12-04T05:47:48;100042.63;;;0.48;100.00
32131;BME280;18639;50.716;7.086;2023-12-04T05:50:13;100028.41;;;0.43;100.00
32131;BME280;18639;50.716;7.086;2023-12-04T05:52:39;100010.16;;;0.28;100.00
32131;BME280;18639;50.716;7.086;2023-12-04T05:55:04;100021.72;;;0.38;100.00
32131;BME280;18639;50.716;7.086;2023-12-04T05:57:29;100014.16;;;0.37;100.00
32131;BME280;18639;50.716;7.086;2023-12-04T05:59:55;100030.03;;;0.43;100.00
32131;BME280;18639;50.716;7.086;2023-12-04T06:02:20;100010.16;;;0.28;100.00
32131;BME280;18639;50.716;7.086;2023-12-04T06:04:45;100027.56;;;0.42;100.00
32131;BME280;18639;50.716;7.086;2023-12-04T06:07:11;100000.69;;;0.33;100.00
32131;BME280;18639;50.716;7.086;2023-12-04T06:09:36;100014.88;;;0.40;100.00
32131;BME280;18639;50.716;7.086;2023-12-04T06:12:02;100001.56;;;0.32;100.00
32131;BME280;18639;50.716;7.086;2023-12-04T06:14:33;100006.13;;;0.51;100.00
32131;BME280;18639;50.716;7.086;2023-12-04T06:16:58;99986.13;;;0.38;100.00
32131;BME280;18639;50.716;7.086;2023-12-04T06:19:23;100001.97;;;0.48;100.00
32131;BME280;18639;50.716;7.086;2023-12-04T06:21:48;100007.69;;;0.55;100.00
32131;BME280;18639;50.716;7.086;2023-12-04T06:24:14;100004.09;;;0.62;100.00
32131;BME280;18639;50.716;7.086;2023-12-04T06:26:41;99949.34;;;0.22;100.00
32131;BME280;18639;50.716;7.086;2023-12-04T06:29:08;99981.50;;;0.53;100.00
32131;BME280;18639;50.716;7.086;2023-12-04T06:31:34;99971.47;;;0.48;100.00
32131;BME280;18639;50.716;7.086;2023-12-04T06:33:59;99984.94;;;0.50;100.00
32131;BME280;18639;50.716;7.086;2023-12-04T06:36:26;99969.06;;;0.43;100.00
32131;BME280;18639;50.716;7.086;2023-12-04T06:38:53;99935.25;;;0.41;100.00
32131;BME280;18639;50.716;7.086;2023-12-04T06:41:18;99947.09;;;0.43;100.00
32131;BME280;18639;50.716;7.086;2023-12-04T06:43:46;99952.59;;;0.55;100.00
32131;BME280;18639;50.716;7.086;2023-12-04T06:46:14;99947.56;;;0.54;100.00
32131;BME280;18639;50.716;7.086;2023-12-04T06:48:41;99927.72;;;0.65;100.00
32131;BME280;18639;50.716;7.086;2023-12-04T06:51:07;99943.13;;;0.60;100.00
32131;BME280;18639;50.716;7.086;2023-12-04T06:53:33;99938.31;;;0.53;100.00
32131;BME280;18639;50.716;7.086;2023-12-04T06:55:58;99928.72;;;0.61;100.00
32131;BME280;18639;50.716;7.086;2023-12-04T06:58:23;99927.94;;;0.59;100.00
32131;BME280;18639;50.716;7.086;2023-12-04T07:00:49;99922.03;;;0.58;100.00
32131;BME280;18639;50.716;7.086;2023-12-04T07:03:14;99938.88;;;0.61;100.00
32131;BME280;18639;50.716;7.086;2023-12-04T07:05:40;99916.47;;;0.46;100.00
32131;BME280;18639;50.716;7.086;2023-12-04T07:08:05;99922.88;;;0.59;100.00
32131;BME280;18639;50.716;7.086;2023-12-04T07:10:30;99932.88;;;0.63;100.00
32131;BME280;18639;50.716;7.086;2023-12-04T07:12:55;99931.25;;;0.61;100.00
32131;BME280;18639;50.716;7.086;2023-12-04T07:15:21;99853.75;;;0.20;100.00
32131;BME280;18639;50.716;7.086;2023-12-04T07:17:47;99871.28;;;0.27;100.00
32131;BME280;18639;50.716;7.086;2023-12-04T07:20:12;99881.19;;;0.36;100.00
32131;BME280;18639;50.716;7.086;2023-12-04T07:22:37;99891.75;;;0.51;100.00
32131;BME280;18639;50.716;7.086;2023-12-04T07:25:02;99893.94;;;0.63;100.00
32131;BME280;18639;50.716;7.086;2023-12-04T07:27:28;99914.06;;;0.69;100.00
32131;BME280;18639;50.716;7.086;2023-12-04T07:29:53;99897.50;;;0.57;100.00
32131;BME280;18639;50.716;7.086;2023-12-04T07:32:18;99882.19;;;0.59;100.00
32131;BME280;18639;50.716;7.086;2023-12-04T07:34:44;99867.00;;;0.57;100.00
32131;BME280;18639;50.716;7.086;2023-12-04T07:37:10;99886.19;;;0.66;100.00
32131;BME280;18639;50.716;7.086;2023-12-04T07:39:35;99898.53;;;0.78;100.00
32131;BME280;18639;50.716;7.086;2023-12-04T07:42:00;99891.75;;;0.77;100.00
32131;BME280;18639;50.716;7.086;2023-12-04T07:44:26;99885.28;;;0.68;100.00
32131;BME280;18639;50.716;7.086;2023-12-04T07:46:51;99888.34;;;0.78;100.00
32131;BME280;18639;50.716;7.086;2023-12-04T07:49:16;99872.56;;;0.68;100.00
32131;BME280;18639;50.716;7.086;2023-12-04T07:51:41;99876.63;;;0.74;100.00
32131;BME280;18639;50.716;7.086;2023-12-04T07:54:07;99885.66;;;0.82;100.00
32131;BME280;18639;50.716;7.086;2023-12-04T07:56:32;99889.03;;;0.83;100.00
32131;BME280;18639;50.716;7.086;2023-12-04T07:58:57;99888.63;;;0.95;100.00
32131;BME280;18639;50.716;7.086;2023-12-04T08:01:23;99886.03;;;0.97;100.00
32131;BME280;18639;50.716;7.086;2023-12-04T08:03:49;99883.91;;;0.84;100.00
32131;BME280;18639;50.716;7.086;2023-12-04T08:06:14;99854.50;;;0.76;100.00
32131;BME280;18639;50.716;7.086;2023-12-04T08:08:41;99864.41;;;0.85;100.00
32131;BME280;18639;50.716;7.086;2023-12-04T08:11:09;99843.00;;;0.64;100.00
32131;BME280;18639;50.716;7.086;2023-12-04T08:13:34;99876.84;;;0.93;100.00
32131;BME280;18639;50.716;7.086;2023-12-04T08:16:00;99875.25;;;0.90;100.00
32131;BME280;18639;50.716;7.086;2023-12-04T08:18:25;99857.78;;;0.79;100.00
32131;BME280;18639;50.716;7.086;2023-12-04T08:20:51;99851.88;;;0.79;100.00
32131;BME280;18639;50.716;7.086;2023-12-04T08:23:16;99809.16;;;0.64;100.00
32131;BME280;18639;50.716;7.086;2023-12-04T08:25:41;99860.13;;;0.85;100.00
32131;BME280;18639;50.716;7.086;2023-12-04T08:28:07;99829.69;;;0.58;100.00
32131;BME280;18639;50.716;7.086;2023-12-04T08:30:33;99861.94;;;0.82;100.00
32131;BME280;18639;50.716;7.086;2023-12-04T08:32:59;99839.38;;;0.73;100.00
32131;BME280;18639;50.716;7.086;2023-12-04T08:35:24;99855.78;;;0.89;100.00
32131;BME280;18639;50.716;7.086;2023-12-04T08:37:49;99853.91;;;0.94;100.00
32131;BME280;18639;50.716;7.086;2023-12-04T08:40:14;99854.09;;;0.88;100.00
32131;BME280;18639;50.716;7.086;2023-12-04T08:42:40;99868.03;;;1.03;100.00
32131;BME280;18639;50.716;7.086;2023-12-04T08:45:05;99836.91;;;0.96;100.00
32131;BME280;18639;50.716;7.086;2023-12-04T08:47:31;99836.34;;;0.87;100.00
32131;BME280;18639;50.716;7.086;2023-12-04T08:49:56;99839.50;;;0.95;100.00
32131;BME280;18639;50.716;7.086;2023-12-04T08:52:22;99828.34;;;0.97;100.00
32131;BME280;18639;50.716;7.086;2023-12-04T08:54:47;99822.81;;;0.86;100.00
32131;BME280;18639;50.716;7.086;2023-12-04T08:57:12;99859.94;;;1.16;100.00
32131;BME280;18639;50.716;7.086;2023-12-04T08:59:38;99847.94;;;1.20;100.00
32131;BME280;18639;50.716;7.086;2023-12-04T09:02:03;99838.25;;;1.06;100.00
32131;BME280;18639;50.716;7.086;2023-12-04T09:04:30;99850.34;;;1.23;100.00
32131;BME280;18639;50.716;7.086;2023-12-04T09:06:56;99838.72;;;1.17;100.00
32131;BME280;18639;50.716;7.086;2023-12-04T09:09:21;99847.44;;;1.34;100.00
32131;BME280;18639;50.716;7.086;2023-12-04T09:11:46;99817.38;;;1.21;100.00
32131;BME280;18639;50.716;7.086;2023-12-04T09:14:12;99830.72;;;1.28;99.73
32131;BME280;18639;50.716;7.086;2023-12-04T09:16:38;99825.75;;;1.23;100.00
32131;BME280;18639;50.716;7.086;2023-12-04T09:19:03;99835.06;;;1.24;99.38
32131;BME280;18639;50.716;7.086;2023-12-04T09:21:28;99832.72;;;1.18;99.37
32131;BME280;18639;50.716;7.086;2023-12-04T09:23:54;99818.03;;;1.26;100.00
32131;BME280;18639;50.716;7.086;2023-12-04T09:26:19;99835.72;;;1.30;100.00
32131;BME280;18639;50.716;7.086;2023-12-04T09:28:45;99825.88;;;1.20;100.00
32131;BME280;18639;50.716;7.086;2023-12-04T09:31:10;99818.03;;;1.26;100.00
32131;BME280;18639;50.716;7.086;2023-12-04T09:33:35;99810.19;;;1.33;99.58
32131;BME280;18639;50.716;7.086;2023-12-04T09:36:01;99742.00;;;0.94;100.00
32131;BME280;18639;50.716;7.086;2023-12-04T09:38:27;99807.25;;;1.43;100.00
32131;BME280;18639;50.716;7.086;2023-12-04T09:40:52;99800.97;;;1.28;98.64
32131;BME280;18639;50.716;7.086;2023-12-04T09:43:18;99793.88;;;1.38;100.00
32131;BME280;18639;50.716;7.086;2023-12-04T09:45:44;99801.75;;;1.31;97.91
32131;BME280;18639;50.716;7.086;2023-12-04T09:48:09;99786.06;;;1.43;98.06
32131;BME280;18639;50.716;7.086;2023-12-04T09:50:36;99787.94;;;1.38;99.49
32131;BME280;18639;50.716;7.086;2023-12-04T09:53:02;99785.19;;;1.44;100.00
32131;BME280;18639;50.716;7.086;2023-12-04T09:55:27;99781.69;;;1.46;100.00
32131;BME280;18639;50.716;7.086;2023-12-04T09:57:54;99781.69;;;1.46;100.00
32131;BME280;18639;50.716;7.086;2023-12-04T10:00:20;99784.81;;;1.30;98.57
32131;BME280;18639;50.716;7.086;2023-12-04T10:02:46;99756.91;;;1.28;99.01
32131;BME280;18639;50.716;7.086;2023-12-04T10:05:12;99775.69;;;1.47;100.00
32131;BME280;18639;50.716;7.086;2023-12-04T10:07:38;99747.31;;;1.35;100.00
32131;BME280;18639;50.716;7.086;2023-12-04T10:10:04;99714.19;;;1.36;100.00
32131;BME280;18639;50.716;7.086;2023-12-04T10:12:33;99736.16;;;1.60;100.00
32131;BME280;18639;50.716;7.086;2023-12-04T10:17:35;99739.84;;;1.53;100.00
32131;BME280;18639;50.716;7.086;2023-12-04T10:22:55;99713.84;;;1.45;100.00
32131;BME280;18639;50.716;7.086;2023-12-04T10:25:22;99710.13;;;1.54;100.00
32131;BME280;18639;50.716;7.086;2023-12-04T10:27:49;99706.38;;;1.41;100.00
32131;BME280;18639;50.716;7.086;2023-12-04T10:30:25;99722.72;;;1.57;100.00
32131;BME280;18639;50.716;7.086;2023-12-04T10:32:56;99715.34;;;1.73;100.00
32131;BME280;18639;50.716;7.086;2023-12-04T10:35:32;99709.41;;;1.72;100.00
32131;BME280;18639;50.716;7.086;2023-12-04T10:37:58;99711.91;;;1.74;100.00
32131;BME280;18639;50.716;7.086;2023-12-04T10:40:29;99690.94;;;1.67;100.00
32131;BME280;18639;50.716;7.086;2023-12-04T10:43:19;99701.53;;;1.78;100.00
32131;BME280;18639;50.716;7.086;2023-12-04T10:45:47;99713.84;;;1.67;100.00
32131;BME280;18639;50.716;7.086;2023-12-04T10:48:14;99703.16;;;1.59;100.00
32131;BME280;18639;50.716;7.086;2023-12-04T10:50:41;99702.50;;;1.54;100.00
32131;BME280;18639;50.716;7.086;2023-12-04T10:53:08;99711.66;;;1.58;100.00
32131;BME280;18639;50.716;7.086;2023-12-04T10:55:35;99705.88;;;1.54;100.00
32131;BME280;18639;50.716;7.086;2023-12-04T10:58:07;99707.00;;;1.69;100.00
32131;BME280;18639;50.716;7.086;2023-12-04T11:00:33;99683.88;;;1.74;100.00
32131;BME280;18639;50.716;7.086;2023-12-04T11:03:04;99706.69;;;1.77;100.00
32131;BME280;18639;50.716;7.086;2023-12-04T11:05:32;99678.69;;;1.55;100.00
32131;BME280;18639;50.716;7.086;2023-12-04T11:08:00;99681.53;;;1.69;100.00
32131;BME280;18639;50.716;7.086;2023-12-04T11:10:27;99686.72;;;1.66;100.00
32131;BME280;18639;50.716;7.086;2023-12-04T11:13:00;99676.66;;;1.63;100.00
32131;BME280;18639;50.716;7.086;2023-12-04T11:15:29;99651.69;;;1.51;100.00
32131;BME280;18639;50.716;7.086;2023-12-04T11:17:59;99645.41;;;1.59;100.00
32131;BME280;18639;50.716;7.086;2023-12-04T11:20:27;99659.13;;;1.77;100.00
32131;BME280;18639;50.716;7.086;2023-12-04T11:22:53;99660.47;;;1.65;100.00
32131;BME280;18639;50.716;7.086;2023-12-04T11:25:20;99641.91;;;1.62;100.00
32131;BME280;18639;50.716;7.086;2023-12-04T11:27:48;99639.50;;;1.59;100.00
32131;BME280;18639;50.716;7.086;2023-12-04T11:30:14;99646.72;;;1.69;100.00
32131;BME280;18639;50.716;7.086;2023-12-04T11:32:45;99628.16;;;1.66;100.00
32131;BME280;18639;50.716;7.086;2023-12-04T11:35:17;99615.44;;;1.66;100.00
32131;BME280;18639;50.716;7.086;2023-12-04T11:37:44;99624.44;;;1.75;100.00
32131;BME280;18639;50.716;7.086;2023-12-04T11:40:11;99623.84;;;1.68;100.00
32131;BME280;18639;50.716;7.086;2023-12-04T11:42:38;99602.56;;;1.49;100.00
32131;BME280;18639;50.716;7.086;2023-12-04T11:45:05;99607.75;;;1.67;100.00
32131;BME280;18639;50.716;7.086;2023-12-04T11:47:31;99601.63;;;1.72;100.00
32131;BME280;18639;50.716;7.086;2023-12-04T11:50:13;99587.06;;;1.55;100.00
32131;BME280;18639;50.716;7.086;2023-12-04T11:52:38;99594.50;;;1.59;100.00
32131;BME280;18639;50.716;7.086;2023-12-04T11:55:04;99603.13;;;1.55;100.00
32131;BME280;18639;50.716;7.086;2023-12-04T11:57:40;99588.25;;;1.66;100.00
32131;BME280;18639;50.716;7.086;2023-12-04T12:05:14;99584.00;;;1.67;100.00
32131;BME280;18639;50.716;7.086;2023-12-04T12:07:40;99573.56;;;1.53;100.00
32131;BME280;18639;50.716;7.086;2023-12-04T12:10:05;99556.13;;;1.44;100.00
32131;BME280;18639;50.716;7.086;2023-12-04T12:12:31;99559.09;;;1.53;100.00
32131;BME280;18639;50.716;7.086;2023-12-04T12:15:00;99536.75;;;1.40;100.00
32131;BME280;18639;50.716;7.086;2023-12-04T12:17:25;99539.81;;;1.48;100.00
32131;BME280;18639;50.716;7.086;2023-12-04T12:19:51;99553.00;;;1.57;100.00
32131;BME280;18639;50.716;7.086;2023-12-04T12:22:17;99526.22;;;1.49;100.00
32131;BME280;18639;50.716;7.086;2023-12-04T12:24:42;99526.41;;;1.44;100.00
32131;BME280;18639;50.716;7.086;2023-12-04T12:27:07;99524.66;;;1.45;100.00
32131;BME280;18639;50.716;7.086;2023-12-04T12:29:32;99530.13;;;1.56;100.00
32131;BME280;18639;50.716;7.086;2023-12-04T12:31:58;99536.00;;;1.58;100.00
32131;BME280;18639;50.716;7.086;2023-12-04T12:34:23;99524.84;;;1.60;100.00
32131;BME280;18639;50.716;7.086;2023-12-04T12:36:48;99515.69;;;1.56;100.00
32131;BME280;18639;50.716;7.086;2023-12-04T12:39:14;99522.63;;;1.73;100.00
32131;BME280;18639;50.716;7.086;2023-12-04T12:41:47;99518.19;;;1.78;100.00
32131;BME280;18639;50.716;7.086;2023-12-04T12:44:13;99508.63;;;1.63;100.00
32131;BME280;18639;50.716;7.086;2023-12-04T12:46:40;99495.28;;;1.58;100.00
32131;BME280;18639;50.716;7.086;2023-12-04T12:49:06;99504.19;;;1.68;100.00
32131;BME280;18639;50.716;7.086;2023-12-04T12:51:31;99515.38;;;1.64;100.00
32131;BME280;18639;50.716;7.086;2023-12-04T12:53:57;99504.22;;;1.66;100.00
32131;BME280;18639;50.716;7.086;2023-12-04T12:56:23;99491.91;;;1.57;100.00
32131;BME280;18639;50.716;7.086;2023-12-04T12:58:49;99469.81;;;1.58;100.00